sensor_id;sensor_type;location;lat;lon;timestamp;P1;durP1;ratioP1;P2;durP2;ratioP2
1977;SDS011;989;53.016;8.346;2022-12-10T00:01:32;64.20;;;24.98;;
1977;SDS011;989;53.016;8.346;2022-12-10T00:03:59;66.68;;;22.35;;
1977;SDS011;989;53.016;8.346;2022-12-10T00:06:26;62.63;;;20.00;;
1977;SDS011;989;53.016;8.346;2022-12-10T00:08:54;53.13;;;18.30;;
1977;SDS011;989;53.016;8.346;2022-12-10T00:11:21;65.35;;;22.45;;
1977;SDS011;989;53.016;8.346;2022-12-10T00:13:49;63.70;;;20.73;;
1977;SDS011;989;53.016;8.346;2022-12-10T00:16:16;68.40;;;20.50;;
1977;SDS011;989;53.016;8.346;2022-12-10T00:18:43;66.85;;;22.35;;
1977;SDS011;989;53.016;8.346;2022-12-10T00:21:11;57.33;;;19.85;;
1977;SDS011;989;53.016;8.346;2022-12-10T00:23:40;63.55;;;23.75;;
1977;SDS011;989;53.016;8.346;2022-12-10T00:28:38;84.97;;;25.60;;
1977;SDS011;989;53.016;8.346;2022-12-10T00:31:06;65.55;;;20.23;;
1977;SDS011;989;53.016;8.346;2022-12-10T00:33:39;76.93;;;22.23;;
1977;SDS011;989;53.016;8.346;2022-12-10T00:36:16;75.60;;;22.95;;
1977;SDS011;989;53.016;8.346;2022-12-10T00:38:45;55.55;;;21.17;;
1977;SDS011;989;53.016;8.346;2022-12-10T00:41:12;77.60;;;22.98;;
1977;SDS011;989;53.016;8.346;2022-12-10T00:43:39;62.20;;;20.25;;
1977;SDS011;989;53.016;8.346;2022-12-10T00:46:06;81.47;;;24.25;;
1977;SDS011;989;53.016;8.346;2022-12-10T00:48:32;70.37;;;21.63;;
1977;SDS011;989;53.016;8.346;2022-12-10T00:51:02;82.47;;;21.90;;
1977;SDS011;989;53.016;8.346;2022-12-10T00:53:31;53.45;;;20.02;;
1977;SDS011;989;53.016;8.346;2022-12-10T00:56:00;79.60;;;22.88;;
1977;SDS011;989;53.016;8.346;2022-12-10T00:58:26;77.90;;;23.98;;
1977;SDS011;989;53.016;8.346;2022-12-10T01:01:01;71.30;;;21.52;;
1977;SDS011;989;53.016;8.346;2022-12-10T01:03:52;64.30;;;20.60;;
1977;SDS011;989;53.016;8.346;2022-12-10T01:06:26;65.32;;;23.73;;
1977;SDS011;989;53.016;8.346;2022-12-10T01:08:55;55.83;;;20.63;;
1977;SDS011;989;53.016;8.346;2022-12-10T01:11:25;80.82;;;24.02;;
1977;SDS011;989;53.016;8.346;2022-12-10T01:13:54;58.53;;;22.98;;
1977;SDS011;989;53.016;8.346;2022-12-10T01:16:20;77.37;;;24.60;;
1977;SDS011;989;53.016;8.346;2022-12-10T01:18:48;54.50;;;20.40;;
1977;SDS011;989;53.016;8.346;2022-12-10T01:21:15;63.45;;;21.60;;
1977;SDS011;989;53.016;8.346;2022-12-10T01:23:45;71.75;;;22.17;;
1977;SDS011;989;53.016;8.346;2022-12-10T01:26:14;60.80;;;20.27;;
1977;SDS011;989;53.016;8.346;2022-12-10T01:28:45;54.17;;;22.70;;
1977;SDS011;989;53.016;8.346;2022-12-10T01:31:16;58.92;;;20.73;;
1977;SDS011;989;53.016;8.346;2022-12-10T01:33:45;72.53;;;22.02;;
1977;SDS011;989;53.016;8.346;2022-12-10T01:36:16;62.85;;;24.00;;
1977;SDS011;989;53.016;8.346;2022-12-10T01:38:48;67.57;;;20.40;;
1977;SDS011;989;53.016;8.346;2022-12-10T01:41:24;77.17;;;22.57;;
1977;SDS011;989;53.016;8.346;2022-12-10T01:43:58;61.75;;;22.33;;
1977;SDS011;989;53.016;8.346;2022-12-10T01:46:53;66.70;;;23.17;;
1977;SDS011;989;53.016;8.346;2022-12-10T01:49:23;81.93;;;24.30;;
1977;SDS011;989;53.016;8.346;2022-12-10T01:51:56;59.03;;;22.58;;
1977;SDS011;989;53.016;8.346;2022-12-10T01:54:23;89.03;;;24.30;;
1977;SDS011;989;53.016;8.346;2022-12-10T01:57:02;71.30;;;24.45;;
1977;SDS011;989;53.016;8.346;2022-12-10T01:59:36;84.75;;;22.58;;
1977;SDS011;989;53.016;8.346;2022-12-10T02:02:07;69.80;;;24.02;;
1977;SDS011;989;53.016;8.346;2022-12-10T02:14:05;63.08;;;23.45;;
1977;SDS011;989;53.016;8.346;2022-12-10T02:16:41;69.47;;;24.50;;
1977;SDS011;989;53.016;8.346;2022-12-10T02:19:19;73.03;;;21.40;;
1977;SDS011;989;53.016;8.346;2022-12-10T02:21:50;71.03;;;23.95;;
1977;SDS011;989;53.016;8.346;2022-12-10T02:24:20;77.10;;;26.45;;
1977;SDS011;989;53.016;8.346;2022-12-10T02:27:06;80.00;;;25.42;;
1977;SDS011;989;53.016;8.346;2022-12-10T02:29:46;65.60;;;24.08;;
1977;SDS011;989;53.016;8.346;2022-12-10T02:32:16;82.78;;;27.80;;
1977;SDS011;989;53.016;8.346;2022-12-10T02:34:48;74.38;;;25.05;;
1977;SDS011;989;53.016;8.346;2022-12-10T02:37:20;64.10;;;22.17;;
1977;SDS011;989;53.016;8.346;2022-12-10T02:39:53;73.55;;;26.02;;
1977;SDS011;989;53.016;8.346;2022-12-10T02:42:21;59.90;;;22.52;;
1977;SDS011;989;53.016;8.346;2022-12-10T02:44:50;73.35;;;22.05;;
1977;SDS011;989;53.016;8.346;2022-12-10T02:47:17;71.55;;;23.10;;
1977;SDS011;989;53.016;8.346;2022-12-10T02:49:44;73.28;;;22.92;;
1977;SDS011;989;53.016;8.346;2022-12-10T02:52:13;59.08;;;24.77;;
1977;SDS011;989;53.016;8.346;2022-12-10T02:54:47;66.35;;;25.38;;
1977;SDS011;989;53.016;8.346;2022-12-10T03:00:21;70.22;;;25.17;;
1977;SDS011;989;53.016;8.346;2022-12-10T03:05:59;68.47;;;24.45;;
1977;SDS011;989;53.016;8.346;2022-12-10T03:08:49;66.10;;;22.08;;
1977;SDS011;989;53.016;8.346;2022-12-10T03:11:27;64.22;;;24.63;;
1977;SDS011;989;53.016;8.346;2022-12-10T03:14:00;84.10;;;26.50;;
1977;SDS011;989;53.016;8.346;2022-12-10T03:16:36;65.00;;;24.63;;
1977;SDS011;989;53.016;8.346;2022-12-10T03:19:14;72.75;;;24.85;;
1977;SDS011;989;53.016;8.346;2022-12-10T03:21:44;84.20;;;27.55;;
1977;SDS011;989;53.016;8.346;2022-12-10T03:24:12;88.05;;;27.23;;
1977;SDS011;989;53.016;8.346;2022-12-10T03:26:40;83.82;;;28.10;;
1977;SDS011;989;53.016;8.346;2022-12-10T03:29:10;78.30;;;28.20;;
1977;SDS011;989;53.016;8.346;2022-12-10T03:31:44;80.30;;;27.50;;
1977;SDS011;989;53.016;8.346;2022-12-10T03:34:10;74.30;;;26.05;;
1977;SDS011;989;53.016;8.346;2022-12-10T03:36:37;78.22;;;25.58;;
1977;SDS011;989;53.016;8.346;2022-12-10T03:39:04;71.68;;;24.52;;
1977;SDS011;989;53.016;8.346;2022-12-10T03:41:30;88.40;;;26.95;;
1977;SDS011;989;53.016;8.346;2022-12-10T03:43:57;73.07;;;28.10;;
1977;SDS011;989;53.016;8.346;2022-12-10T03:46:25;79.65;;;28.02;;
1977;SDS011;989;53.016;8.346;2022-12-10T03:48:54;90.68;;;28.90;;
1977;SDS011;989;53.016;8.346;2022-12-10T03:51:22;84.65;;;29.88;;
1977;SDS011;989;53.016;8.346;2022-12-10T03:53:47;117.27;;;29.60;;
1977;SDS011;989;53.016;8.346;2022-12-10T03:56:14;80.85;;;25.67;;
1977;SDS011;989;53.016;8.346;2022-12-10T03:58:41;88.55;;;27.40;;
1977;SDS011;989;53.016;8.346;2022-12-10T04:01:07;96.03;;;27.03;;
1977;SDS011;989;53.016;8.346;2022-12-10T04:03:36;76.23;;;26.83;;
1977;SDS011;989;53.016;8.346;2022-12-10T04:06:04;106.18;;;30.27;;
1977;SDS011;989;53.016;8.346;2022-12-10T04:08:32;80.63;;;26.40;;
1977;SDS011;989;53.016;8.346;2022-12-10T04:11:05;101.40;;;33.40;;
1977;SDS011;989;53.016;8.346;2022-12-10T04:13:33;71.65;;;25.27;;
1977;SDS011;989;53.016;8.346;2022-12-10T04:16:19;79.25;;;28.10;;
1977;SDS011;989;53.016;8.346;2022-12-10T04:18:51;92.70;;;27.40;;
1977;SDS011;989;53.016;8.346;2022-12-10T04:21:18;76.40;;;27.08;;
1977;SDS011;989;53.016;8.346;2022-12-10T04:24:02;67.22;;;24.02;;
1977;SDS011;989;53.016;8.346;2022-12-10T04:26:47;115.20;;;27.77;;
1977;SDS011;989;53.016;8.346;2022-12-10T04:29:19;92.35;;;28.10;;
1977;SDS011;989;53.016;8.346;2022-12-10T04:31:55;95.70;;;32.20;;
1977;SDS011;989;53.016;8.346;2022-12-10T04:34:21;99.03;;;28.55;;
1977;SDS011;989;53.016;8.346;2022-12-10T04:36:48;81.13;;;26.65;;
1977;SDS011;989;53.016;8.346;2022-12-10T04:39:14;92.15;;;29.10;;
1977;SDS011;989;53.016;8.346;2022-12-10T04:41:40;90.23;;;28.97;;
1977;SDS011;989;53.016;8.346;2022-12-10T04:44:08;77.00;;;30.00;;
1977;SDS011;989;53.016;8.346;2022-12-10T04:46:34;72.05;;;29.05;;
1977;SDS011;989;53.016;8.346;2022-12-10T04:49:00;79.38;;;26.65;;
1977;SDS011;989;53.016;8.346;2022-12-10T04:51:28;62.53;;;25.23;;
1977;SDS011;989;53.016;8.346;2022-12-10T04:53:53;77.50;;;27.90;;
1977;SDS011;989;53.016;8.346;2022-12-10T04:56:19;74.27;;;24.23;;
1977;SDS011;989;53.016;8.346;2022-12-10T04:58:44;88.30;;;27.17;;
1977;SDS011;989;53.016;8.346;2022-12-10T05:01:10;72.87;;;25.37;;
1977;SDS011;989;53.016;8.346;2022-12-10T05:03:37;73.43;;;27.00;;
1977;SDS011;989;53.016;8.346;2022-12-10T05:06:05;70.20;;;24.67;;
1977;SDS011;989;53.016;8.346;2022-12-10T05:08:34;75.72;;;29.70;;
1977;SDS011;989;53.016;8.346;2022-12-10T05:11:06;70.45;;;25.67;;
1977;SDS011;989;53.016;8.346;2022-12-10T05:13:36;72.63;;;21.85;;
1977;SDS011;989;53.016;8.346;2022-12-10T05:16:02;73.28;;;27.15;;
1977;SDS011;989;53.016;8.346;2022-12-10T05:18:30;76.85;;;26.15;;
1977;SDS011;989;53.016;8.346;2022-12-10T05:20:58;84.72;;;25.30;;
1977;SDS011;989;53.016;8.346;2022-12-10T05:23:24;75.05;;;22.95;;
1977;SDS011;989;53.016;8.346;2022-12-10T05:28:49;66.35;;;21.33;;
1977;SDS011;989;53.016;8.346;2022-12-10T05:31:21;61.22;;;21.48;;
1977;SDS011;989;53.016;8.346;2022-12-10T05:33:50;64.97;;;24.27;;
1977;SDS011;989;53.016;8.346;2022-12-10T05:36:18;68.00;;;20.50;;
1977;SDS011;989;53.016;8.346;2022-12-10T05:38:48;52.03;;;22.23;;
1977;SDS011;989;53.016;8.346;2022-12-10T05:41:15;62.78;;;21.08;;
1977;SDS011;989;53.016;8.346;2022-12-10T05:43:47;61.10;;;18.10;;
1977;SDS011;989;53.016;8.346;2022-12-10T05:46:18;47.20;;;22.58;;
1977;SDS011;989;53.016;8.346;2022-12-10T05:48:47;62.08;;;19.35;;
1977;SDS011;989;53.016;8.346;2022-12-10T05:51:16;48.15;;;18.60;;
1977;SDS011;989;53.016;8.346;2022-12-10T05:53:45;65.50;;;20.10;;
1977;SDS011;989;53.016;8.346;2022-12-10T05:56:12;47.33;;;19.13;;
1977;SDS011;989;53.016;8.346;2022-12-10T05:58:41;61.42;;;20.05;;
1977;SDS011;989;53.016;8.346;2022-12-10T06:01:09;62.95;;;24.33;;
1977;SDS011;989;53.016;8.346;2022-12-10T06:03:38;42.53;;;18.30;;
1977;SDS011;989;53.016;8.346;2022-12-10T06:06:04;52.63;;;18.70;;
1977;SDS011;989;53.016;8.346;2022-12-10T06:08:30;54.13;;;19.27;;
1977;SDS011;989;53.016;8.346;2022-12-10T06:11:00;53.97;;;17.90;;
1977;SDS011;989;53.016;8.346;2022-12-10T06:13:31;50.85;;;20.95;;
1977;SDS011;989;53.016;8.346;2022-12-10T06:15:57;53.67;;;19.97;;
1977;SDS011;989;53.016;8.346;2022-12-10T06:18:22;44.20;;;17.87;;
1977;SDS011;989;53.016;8.346;2022-12-10T06:20:49;46.17;;;18.08;;
1977;SDS011;989;53.016;8.346;2022-12-10T06:23:15;55.47;;;20.08;;
1977;SDS011;989;53.016;8.346;2022-12-10T06:25:40;52.67;;;17.60;;
1977;SDS011;989;53.016;8.346;2022-12-10T06:28:06;50.23;;;20.30;;
1977;SDS011;989;53.016;8.346;2022-12-10T06:30:33;61.85;;;20.35;;
1977;SDS011;989;53.016;8.346;2022-12-10T06:32:59;40.90;;;15.50;;
1977;SDS011;989;53.016;8.346;2022-12-10T06:35:25;57.57;;;19.37;;
1977;SDS011;989;53.016;8.346;2022-12-10T06:37:51;55.28;;;17.85;;
1977;SDS011;989;53.016;8.346;2022-12-10T06:40:17;40.40;;;17.17;;
1977;SDS011;989;53.016;8.346;2022-12-10T06:42:43;44.47;;;20.20;;
1977;SDS011;989;53.016;8.346;2022-12-10T06:45:09;40.30;;;20.17;;
1977;SDS011;989;53.016;8.346;2022-12-10T06:47:35;49.15;;;19.95;;
1977;SDS011;989;53.016;8.346;2022-12-10T06:50:01;59.50;;;19.23;;
1977;SDS011;989;53.016;8.346;2022-12-10T06:52:27;42.72;;;19.77;;
1977;SDS011;989;53.016;8.346;2022-12-10T06:54:53;58.57;;;21.47;;
1977;SDS011;989;53.016;8.346;2022-12-10T06:57:20;60.97;;;18.73;;
1977;SDS011;989;53.016;8.346;2022-12-10T06:59:46;45.03;;;16.65;;
1977;SDS011;989;53.016;8.346;2022-12-10T07:02:12;52.00;;;19.67;;
1977;SDS011;989;53.016;8.346;2022-12-10T07:04:38;50.50;;;17.97;;
1977;SDS011;989;53.016;8.346;2022-12-10T07:07:04;59.88;;;20.13;;
1977;SDS011;989;53.016;8.346;2022-12-10T07:09:32;56.92;;;18.55;;
1977;SDS011;989;53.016;8.346;2022-12-10T07:11:58;69.47;;;21.27;;
1977;SDS011;989;53.016;8.346;2022-12-10T07:14:24;62.35;;;19.15;;
1977;SDS011;989;53.016;8.346;2022-12-10T07:16:50;76.30;;;21.15;;
1977;SDS011;989;53.016;8.346;2022-12-10T07:19:16;52.23;;;20.90;;
1977;SDS011;989;53.016;8.346;2022-12-10T07:21:43;59.20;;;22.87;;
1977;SDS011;989;53.016;8.346;2022-12-10T07:24:10;53.80;;;21.80;;
1977;SDS011;989;53.016;8.346;2022-12-10T07:26:41;69.93;;;23.33;;
1977;SDS011;989;53.016;8.346;2022-12-10T07:29:09;58.42;;;20.85;;
1977;SDS011;989;53.016;8.346;2022-12-10T07:31:42;52.42;;;20.55;;
1977;SDS011;989;53.016;8.346;2022-12-10T07:34:09;61.63;;;21.52;;
1977;SDS011;989;53.016;8.346;2022-12-10T07:36:35;65.13;;;20.05;;
1977;SDS011;989;53.016;8.346;2022-12-10T07:39:04;50.97;;;21.88;;
1977;SDS011;989;53.016;8.346;2022-12-10T07:41:31;70.18;;;23.27;;
1977;SDS011;989;53.016;8.346;2022-12-10T07:43:57;77.20;;;25.70;;
1977;SDS011;989;53.016;8.346;2022-12-10T07:46:27;59.70;;;21.63;;
1977;SDS011;989;53.016;8.346;2022-12-10T07:48:55;55.83;;;22.05;;
1977;SDS011;989;53.016;8.346;2022-12-10T07:51:22;57.95;;;22.50;;
1977;SDS011;989;53.016;8.346;2022-12-10T07:53:48;66.38;;;21.10;;
1977;SDS011;989;53.016;8.346;2022-12-10T07:56:16;61.95;;;23.15;;
1977;SDS011;989;53.016;8.346;2022-12-10T07:58:43;60.80;;;20.77;;
1977;SDS011;989;53.016;8.346;2022-12-10T08:01:11;59.45;;;24.55;;
1977;SDS011;989;53.016;8.346;2022-12-10T08:03:43;64.53;;;23.17;;
1977;SDS011;989;53.016;8.346;2022-12-10T08:06:10;58.67;;;19.20;;
1977;SDS011;989;53.016;8.346;2022-12-10T08:08:43;50.35;;;19.42;;
1977;SDS011;989;53.016;8.346;2022-12-10T08:11:10;58.97;;;20.88;;
1977;SDS011;989;53.016;8.346;2022-12-10T08:13:37;58.60;;;18.65;;
1977;SDS011;989;53.016;8.346;2022-12-10T08:16:04;57.88;;;22.83;;
1977;SDS011;989;53.016;8.346;2022-12-10T08:18:33;49.58;;;18.45;;
1977;SDS011;989;53.016;8.346;2022-12-10T08:21:04;59.10;;;22.58;;
1977;SDS011;989;53.016;8.346;2022-12-10T08:23:31;52.20;;;22.02;;
1977;SDS011;989;53.016;8.346;2022-12-10T08:25:57;55.35;;;19.90;;
1977;SDS011;989;53.016;8.346;2022-12-10T08:28:23;50.78;;;18.83;;
1977;SDS011;989;53.016;8.346;2022-12-10T08:30:49;59.77;;;22.33;;
1977;SDS011;989;53.016;8.346;2022-12-10T08:33:15;50.70;;;22.57;;
1977;SDS011;989;53.016;8.346;2022-12-10T08:35:40;48.70;;;20.90;;
1977;SDS011;989;53.016;8.346;2022-12-10T08:38:06;49.37;;;22.23;;
1977;SDS011;989;53.016;8.346;2022-12-10T08:40:32;47.40;;;20.13;;
1977;SDS011;989;53.016;8.346;2022-12-10T08:42:58;52.73;;;21.27;;
1977;SDS011;989;53.016;8.346;2022-12-10T08:45:23;69.23;;;24.70;;
1977;SDS011;989;53.016;8.346;2022-12-10T08:47:49;53.53;;;20.07;;
1977;SDS011;989;53.016;8.346;2022-12-10T08:50:15;58.67;;;22.80;;
1977;SDS011;989;53.016;8.346;2022-12-10T08:52:40;43.90;;;21.37;;
1977;SDS011;989;53.016;8.346;2022-12-10T08:55:06;42.60;;;19.15;;
1977;SDS011;989;53.016;8.346;2022-12-10T08:57:33;63.35;;;22.00;;
1977;SDS011;989;53.016;8.346;2022-12-10T08:59:58;56.50;;;23.17;;
1977;SDS011;989;53.016;8.346;2022-12-10T09:02:24;47.50;;;20.70;;
1977;SDS011;989;53.016;8.346;2022-12-10T09:04:50;59.57;;;22.30;;
1977;SDS011;989;53.016;8.346;2022-12-10T09:07:15;52.73;;;21.37;;
1977;SDS011;989;53.016;8.346;2022-12-10T09:09:41;59.50;;;20.77;;
1977;SDS011;989;53.016;8.346;2022-12-10T09:12:07;49.00;;;20.80;;
1977;SDS011;989;53.016;8.346;2022-12-10T09:14:32;49.83;;;22.03;;
1977;SDS011;989;53.016;8.346;2022-12-10T09:16:58;56.33;;;21.53;;
1977;SDS011;989;53.016;8.346;2022-12-10T09:19:24;47.97;;;21.33;;
1977;SDS011;989;53.016;8.346;2022-12-10T09:21:49;59.50;;;22.77;;
1977;SDS011;989;53.016;8.346;2022-12-10T09:24:15;48.27;;;18.57;;
1977;SDS011;989;53.016;8.346;2022-12-10T09:26:40;56.03;;;22.50;;
1977;SDS011;989;53.016;8.346;2022-12-10T09:29:06;61.33;;;22.97;;
1977;SDS011;989;53.016;8.346;2022-12-10T09:31:31;64.63;;;24.73;;
1977;SDS011;989;53.016;8.346;2022-12-10T09:33:57;57.27;;;22.53;;
1977;SDS011;989;53.016;8.346;2022-12-10T09:36:23;57.57;;;21.80;;
1977;SDS011;989;53.016;8.346;2022-12-10T09:38:48;50.00;;;22.70;;
1977;SDS011;989;53.016;8.346;2022-12-10T09:41:37;70.22;;;26.48;;
1977;SDS011;989;53.016;8.346;2022-12-10T09:47:18;52.17;;;23.73;;
1977;SDS011;989;53.016;8.346;2022-12-10T09:52:22;48.30;;;22.95;;
1977;SDS011;989;53.016;8.346;2022-12-10T09:54:56;50.03;;;24.60;;
1977;SDS011;989;53.016;8.346;2022-12-10T09:57:33;66.15;;;24.65;;
1977;SDS011;989;53.016;8.346;2022-12-10T10:02:55;52.10;;;23.35;;
1977;SDS011;989;53.016;8.346;2022-12-10T10:05:27;53.60;;;23.95;;
1977;SDS011;989;53.016;8.346;2022-12-10T10:08:00;70.40;;;24.95;;
1977;SDS011;989;53.016;8.346;2022-12-10T10:10:31;47.78;;;22.23;;
1977;SDS011;989;53.016;8.346;2022-12-10T10:16:23;56.65;;;24.70;;
1977;SDS011;989;53.016;8.346;2022-12-10T10:18:59;39.42;;;19.45;;
1977;SDS011;989;53.016;8.346;2022-12-10T10:21:39;49.70;;;23.10;;
1977;SDS011;989;53.016;8.346;2022-12-10T10:24:19;46.65;;;21.75;;
1977;SDS011;989;53.016;8.346;2022-12-10T10:26:47;53.58;;;22.80;;
1977;SDS011;989;53.016;8.346;2022-12-10T10:29:18;57.55;;;24.83;;
1977;SDS011;989;53.016;8.346;2022-12-10T10:31:46;50.58;;;24.02;;
1977;SDS011;989;53.016;8.346;2022-12-10T10:34:19;46.20;;;23.50;;
1977;SDS011;989;53.016;8.346;2022-12-10T10:36:47;50.15;;;20.70;;
1977;SDS011;989;53.016;8.346;2022-12-10T10:39:26;41.97;;;20.60;;
1977;SDS011;989;53.016;8.346;2022-12-10T10:41:56;41.58;;;21.25;;
1977;SDS011;989;53.016;8.346;2022-12-10T10:44:25;48.55;;;22.83;;
1977;SDS011;989;53.016;8.346;2022-12-10T10:46:59;41.28;;;18.70;;
1977;SDS011;989;53.016;8.346;2022-12-10T10:49:26;50.40;;;21.10;;
1977;SDS011;989;53.016;8.346;2022-12-10T10:52:04;43.40;;;19.40;;
1977;SDS011;989;53.016;8.346;2022-12-10T10:54:38;41.28;;;18.38;;
1977;SDS011;989;53.016;8.346;2022-12-10T10:59:45;41.67;;;21.08;;
1977;SDS011;989;53.016;8.346;2022-12-10T11:02:22;37.78;;;17.38;;
1977;SDS011;989;53.016;8.346;2022-12-10T11:04:55;36.20;;;16.75;;
1977;SDS011;989;53.016;8.346;2022-12-10T11:07:38;45.60;;;19.42;;
1977;SDS011;989;53.016;8.346;2022-12-10T11:10:15;37.15;;;18.73;;
1977;SDS011;989;53.016;8.346;2022-12-10T11:12:53;36.92;;;17.30;;
1977;SDS011;989;53.016;8.346;2022-12-10T11:18:01;35.47;;;16.77;;
1977;SDS011;989;53.016;8.346;2022-12-10T11:20:34;33.13;;;16.73;;
1977;SDS011;989;53.016;8.346;2022-12-10T11:23:02;42.17;;;19.33;;
1977;SDS011;989;53.016;8.346;2022-12-10T11:30:53;33.90;;;17.95;;
1977;SDS011;989;53.016;8.346;2022-12-10T11:36:59;35.67;;;17.02;;
1977;SDS011;989;53.016;8.346;2022-12-10T11:40:03;35.75;;;17.38;;
1977;SDS011;989;53.016;8.346;2022-12-10T11:43:05;27.40;;;16.38;;
1977;SDS011;989;53.016;8.346;2022-12-10T11:54:14;38.35;;;17.42;;
1977;SDS011;989;53.016;8.346;2022-12-10T11:57:14;35.28;;;18.48;;
1977;SDS011;989;53.016;8.346;2022-12-10T11:59:58;39.90;;;18.42;;
1977;SDS011;989;53.016;8.346;2022-12-10T12:09:01;37.50;;;17.58;;
1977;SDS011;989;53.016;8.346;2022-12-10T12:15:08;42.20;;;17.05;;
1977;SDS011;989;53.016;8.346;2022-12-10T12:17:45;36.28;;;17.17;;
1977;SDS011;989;53.016;8.346;2022-12-10T12:23:02;33.75;;;16.40;;
1977;SDS011;989;53.016;8.346;2022-12-10T12:25:36;39.55;;;17.52;;
1977;SDS011;989;53.016;8.346;2022-12-10T12:28:11;35.70;;;17.17;;
1977;SDS011;989;53.016;8.346;2022-12-10T12:31:02;45.10;;;17.00;;
1977;SDS011;989;53.016;8.346;2022-12-10T12:33:38;29.55;;;15.25;;
1977;SDS011;989;53.016;8.346;2022-12-10T12:36:15;35.70;;;16.27;;
1977;SDS011;989;53.016;8.346;2022-12-10T12:39:02;38.40;;;16.55;;
1977;SDS011;989;53.016;8.346;2022-12-10T12:41:48;33.60;;;17.02;;
1977;SDS011;989;53.016;8.346;2022-12-10T12:47:31;40.63;;;17.38;;
1977;SDS011;989;53.016;8.346;2022-12-10T12:50:11;32.60;;;15.32;;
1977;SDS011;989;53.016;8.346;2022-12-10T12:52:58;41.03;;;15.93;;
1977;SDS011;989;53.016;8.346;2022-12-10T12:55:31;27.58;;;16.42;;
1977;SDS011;989;53.016;8.346;2022-12-10T12:58:20;38.08;;;17.65;;
1977;SDS011;989;53.016;8.346;2022-12-10T13:00:54;40.13;;;17.23;;
1977;SDS011;989;53.016;8.346;2022-12-10T13:03:36;39.78;;;17.13;;
1977;SDS011;989;53.016;8.346;2022-12-10T13:08:47;40.67;;;19.92;;
1977;SDS011;989;53.016;8.346;2022-12-10T13:11:28;36.22;;;16.63;;
1977;SDS011;989;53.016;8.346;2022-12-10T13:19:16;39.10;;;17.38;;
1977;SDS011;989;53.016;8.346;2022-12-10T13:37:53;34.97;;;15.25;;
1977;SDS011;989;53.016;8.346;2022-12-10T13:42:59;42.67;;;16.20;;
1977;SDS011;989;53.016;8.346;2022-12-10T13:46:52;35.65;;;16.55;;
1977;SDS011;989;53.016;8.346;2022-12-10T13:49:16;37.88;;;16.02;;
1977;SDS011;989;53.016;8.346;2022-12-10T14:00:22;37.60;;;17.27;;
1977;SDS011;989;53.016;8.346;2022-12-10T14:03:40;36.33;;;14.85;;
1977;SDS011;989;53.016;8.346;2022-12-10T14:06:20;32.83;;;15.73;;
1977;SDS011;989;53.016;8.346;2022-12-10T14:11:36;36.13;;;14.65;;
1977;SDS011;989;53.016;8.346;2022-12-10T14:14:10;31.58;;;14.25;;
1977;SDS011;989;53.016;8.346;2022-12-10T14:16:39;27.50;;;13.55;;
1977;SDS011;989;53.016;8.346;2022-12-10T14:19:06;40.65;;;18.77;;
1977;SDS011;989;53.016;8.346;2022-12-10T14:21:38;32.78;;;15.88;;
1977;SDS011;989;53.016;8.346;2022-12-10T14:24:11;37.60;;;17.52;;
1977;SDS011;989;53.016;8.346;2022-12-10T14:27:23;37.75;;;19.15;;
1977;SDS011;989;53.016;8.346;2022-12-10T14:29:52;38.65;;;15.50;;
1977;SDS011;989;53.016;8.346;2022-12-10T14:32:31;33.78;;;14.52;;
1977;SDS011;989;53.016;8.346;2022-12-10T14:35:00;39.92;;;16.05;;
1977;SDS011;989;53.016;8.346;2022-12-10T14:37:31;35.40;;;16.33;;
1977;SDS011;989;53.016;8.346;2022-12-10T14:40:00;39.13;;;18.15;;
1977;SDS011;989;53.016;8.346;2022-12-10T14:42:29;32.33;;;15.50;;
1977;SDS011;989;53.016;8.346;2022-12-10T14:44:57;37.40;;;14.52;;
1977;SDS011;989;53.016;8.346;2022-12-10T14:47:32;35.15;;;15.52;;
1977;SDS011;989;53.016;8.346;2022-12-10T14:50:03;41.75;;;17.52;;
1977;SDS011;989;53.016;8.346;2022-12-10T14:52:39;34.90;;;15.77;;
1977;SDS011;989;53.016;8.346;2022-12-10T14:55:14;41.13;;;16.17;;
1977;SDS011;989;53.016;8.346;2022-12-10T14:57:48;44.22;;;19.02;;
1977;SDS011;989;53.016;8.346;2022-12-10T15:00:22;35.13;;;16.42;;
1977;SDS011;989;53.016;8.346;2022-12-10T15:02:58;29.73;;;14.52;;
1977;SDS011;989;53.016;8.346;2022-12-10T15:05:31;38.05;;;15.05;;
1977;SDS011;989;53.016;8.346;2022-12-10T15:08:00;32.50;;;14.55;;
1977;SDS011;989;53.016;8.346;2022-12-10T15:10:40;34.63;;;14.35;;
1977;SDS011;989;53.016;8.346;2022-12-10T15:13:19;48.50;;;18.25;;
1977;SDS011;989;53.016;8.346;2022-12-10T15:15:57;32.42;;;14.05;;
1977;SDS011;989;53.016;8.346;2022-12-10T15:18:31;44.25;;;15.52;;
1977;SDS011;989;53.016;8.346;2022-12-10T15:21:10;38.08;;;16.50;;
1977;SDS011;989;53.016;8.346;2022-12-10T15:23:39;34.10;;;14.32;;
1977;SDS011;989;53.016;8.346;2022-12-10T15:26:15;31.90;;;15.00;;
1977;SDS011;989;53.016;8.346;2022-12-10T15:28:46;36.50;;;14.52;;
1977;SDS011;989;53.016;8.346;2022-12-10T15:36:37;43.80;;;16.73;;
1977;SDS011;989;53.016;8.346;2022-12-10T15:39:20;31.02;;;14.77;;
1977;SDS011;989;53.016;8.346;2022-12-10T15:41:52;34.58;;;14.25;;
1977;SDS011;989;53.016;8.346;2022-12-10T15:49:47;31.65;;;13.23;;
1977;SDS011;989;53.016;8.346;2022-12-10T15:52:16;36.60;;;13.88;;
1977;SDS011;989;53.016;8.346;2022-12-10T15:54:51;32.40;;;13.77;;
1977;SDS011;989;53.016;8.346;2022-12-10T15:57:20;32.38;;;14.85;;
1977;SDS011;989;53.016;8.346;2022-12-10T15:59:50;35.95;;;15.63;;
1977;SDS011;989;53.016;8.346;2022-12-10T16:02:26;30.73;;;14.75;;
1977;SDS011;989;53.016;8.346;2022-12-10T16:07:44;42.67;;;15.07;;
1977;SDS011;989;53.016;8.346;2022-12-10T16:10:12;32.55;;;14.65;;
1977;SDS011;989;53.016;8.346;2022-12-10T16:12:43;37.00;;;16.13;;
1977;SDS011;989;53.016;8.346;2022-12-10T16:15:21;48.33;;;16.10;;
1977;SDS011;989;53.016;8.346;2022-12-10T16:17:52;39.33;;;15.43;;
1977;SDS011;989;53.016;8.346;2022-12-10T16:20:22;47.28;;;18.48;;
1977;SDS011;989;53.016;8.346;2022-12-10T16:22:55;29.80;;;13.98;;
1977;SDS011;989;53.016;8.346;2022-12-10T16:25:23;53.72;;;15.57;;
1977;SDS011;989;53.016;8.346;2022-12-10T16:27:51;40.90;;;17.90;;
1977;SDS011;989;53.016;8.346;2022-12-10T16:30:19;43.03;;;18.25;;
1977;SDS011;989;53.016;8.346;2022-12-10T16:32:49;36.70;;;13.40;;
1977;SDS011;989;53.016;8.346;2022-12-10T16:35:16;29.88;;;13.60;;
1977;SDS011;989;53.016;8.346;2022-12-10T16:37:46;29.58;;;13.25;;
1977;SDS011;989;53.016;8.346;2022-12-10T16:40:15;32.03;;;14.93;;
1977;SDS011;989;53.016;8.346;2022-12-10T16:42:42;35.75;;;14.60;;
1977;SDS011;989;53.016;8.346;2022-12-10T16:45:29;31.10;;;14.32;;
1977;SDS011;989;53.016;8.346;2022-12-10T16:47:59;42.05;;;17.60;;
1977;SDS011;989;53.016;8.346;2022-12-10T16:50:25;28.27;;;14.90;;
1977;SDS011;989;53.016;8.346;2022-12-10T16:52:52;32.55;;;15.35;;
1977;SDS011;989;53.016;8.346;2022-12-10T16:55:20;36.28;;;14.60;;
1977;SDS011;989;53.016;8.346;2022-12-10T16:57:50;35.97;;;15.65;;
1977;SDS011;989;53.016;8.346;2022-12-10T17:00:18;39.28;;;17.20;;
1977;SDS011;989;53.016;8.346;2022-12-10T17:02:48;33.03;;;14.18;;
1977;SDS011;989;53.016;8.346;2022-12-10T17:05:22;40.30;;;16.50;;
1977;SDS011;989;53.016;8.346;2022-12-10T17:07:56;31.95;;;12.68;;
1977;SDS011;989;53.016;8.346;2022-12-10T17:10:23;41.10;;;16.35;;
1977;SDS011;989;53.016;8.346;2022-12-10T17:13:11;41.10;;;15.38;;
1977;SDS011;989;53.016;8.346;2022-12-10T17:15:40;32.72;;;14.65;;
1977;SDS011;989;53.016;8.346;2022-12-10T17:18:11;38.22;;;17.35;;
1977;SDS011;989;53.016;8.346;2022-12-10T17:20:40;35.15;;;15.10;;
1977;SDS011;989;53.016;8.346;2022-12-10T17:23:06;36.50;;;15.00;;
1977;SDS011;989;53.016;8.346;2022-12-10T17:25:32;37.93;;;16.47;;
1977;SDS011;989;53.016;8.346;2022-12-10T17:27:57;41.37;;;16.40;;